Aviation Digital Data Service (ADDS)

Output produced by METARs form (0334 UTC 07 June 2020)
found at http://aviationweather.gov/metar/data/
 
METAR text: KUAO 070253Z 21008KT 10SM BKN045 BKN080 13/05 A2990 RMK AO2 SLP125 T01280050 51012
Conditions at: KUAO (AURORA , OR, US) observed 0253 UTC 07 June 2020
Temperature: 12.8°C (55°F)
Dewpoint: 5.0°C (41°F) [RH = 59%]
Pressure (altimeter): 29.90 inches Hg (1012.6 mb)
[Sea-level pressure: 1012.5 mb]
Winds: from the SSW (210 degrees) at 9 MPH (8 knots; 4.1 m/s)
Visibility: 10 or more miles (16+ km)
Ceiling: 4500 feet AGL
Clouds: broken clouds at 4500 feet AGL
broken clouds at 8000 feet AGL
Weather: no significant weather observed at this time

METAR text: KUAO 070153Z 25009KT 10SM SCT038 BKN047 OVC055 13/07 A2990 RMK AO2 SLP123 T01280072
Conditions at: KUAO (AURORA , OR, US) observed 0153 UTC 07 June 2020
Temperature: 12.8°C (55°F)
Dewpoint: 7.2°C (45°F) [RH = 69%]
Pressure (altimeter): 29.90 inches Hg (1012.6 mb)
[Sea-level pressure: 1012.3 mb]
Winds: from the WSW (250 degrees) at 10 MPH (9 knots; 4.6 m/s)
Visibility: 10 or more miles (16+ km)
Ceiling: 4700 feet AGL
Clouds: scattered clouds at 3800 feet AGL
broken clouds at 4700 feet AGL
overcast cloud deck at 5500 feet AGL
Weather: no significant weather observed at this time

Forecast for: KUAO (AURORA , OR, US)
Text: KUAO 070225Z 0702/0724 25009KT P6SM -SHRA SCT035 BKN050 OVC070
Forecast period: 0200 to 0500 UTC 07 June 2020
Forecast type: FROM: standard forecast or significant change
Winds: from the WSW (250 degrees) at 10 MPH (9 knots; 4.6 m/s)
Visibility: 6 or more miles 10+ km)
Ceiling: 5000 feet AGL
Clouds: scattered clouds at 3500 feet AGL
broken clouds at 5000 feet AGL
overcast cloud deck at 7000 feet AGL
Weather: -SHRA  (light rain showers)
Text: FM070500 20005KT P6SM -SHRA SCT035 OVC060
Forecast period: 0500 to 1400 UTC 07 June 2020
Forecast type: FROM: standard forecast or significant change
Winds: from the SSW (200 degrees) at 6 MPH (5 knots; 2.6 m/s)
Visibility: 6 or more miles 10+ km)
Ceiling: 6000 feet AGL
Clouds: scattered clouds at 3500 feet AGL
overcast cloud deck at 6000 feet AGL
Weather: -SHRA  (light rain showers)
Text: FM071400 19010KT P6SM -SHRA FEW015 BKN030 BKN060
Forecast period: 1400 to 2000 UTC 07 June 2020
Forecast type: FROM: standard forecast or significant change
Winds: from the S (190 degrees) at 12 MPH (10 knots; 5.1 m/s)
Visibility: 6 or more miles 10+ km)
Ceiling: 3000 feet AGL
Clouds: few clouds at 1500 feet AGL
broken clouds at 3000 feet AGL
broken clouds at 6000 feet AGL
Weather: -SHRA  (light rain showers)
Text: FM072000 22010G20KT P6SM -SHRA BKN050
Forecast period: 2000 UTC 07 June 2020 to 0000 UTC 08 June 2020
Forecast type: FROM: standard forecast or significant change
Winds: from the SW (220 degrees) at 12 MPH (10 knots; 5.1 m/s)
gusting to 23 MPH (20 knots; 10.3 m/s)
Visibility: 6 or more miles 10+ km)
Ceiling: 5000 feet AGL
Clouds: broken clouds at 5000 feet AGL
Weather: -SHRA  (light rain showers)